sensor_id;sensor_type;location;lat;lon;timestamp;P1;durP1;ratioP1;P2;durP2;ratioP2
31081;SDS011;17737;52.586;13.284;2023-09-07T00:02:00;0.20;;;0.20;;
31081;SDS011;17737;52.586;13.284;2023-09-07T00:04:29;0.20;;;0.20;;
31081;SDS011;17737;52.586;13.284;2023-09-07T00:06:57;0.30;;;0.30;;
31081;SDS011;17737;52.586;13.284;2023-09-07T00:09:25;0.28;;;0.28;;
31081;SDS011;17737;52.586;13.284;2023-09-07T00:11:54;0.30;;;0.30;;
31081;SDS011;17737;52.586;13.284;2023-09-07T00:14:22;0.20;;;0.20;;
31081;SDS011;17737;52.586;13.284;2023-09-07T00:16:51;0.30;;;0.30;;
31081;SDS011;17737;52.586;13.284;2023-09-07T00:19:20;0.20;;;0.20;;
31081;SDS011;17737;52.586;13.284;2023-09-07T00:21:48;0.30;;;0.30;;
31081;SDS011;17737;52.586;13.284;2023-09-07T00:24:18;0.25;;;0.25;;
31081;SDS011;17737;52.586;13.284;2023-09-07T00:26:46;0.20;;;0.20;;
31081;SDS011;17737;52.586;13.284;2023-09-07T00:29:14;0.20;;;0.20;;
31081;SDS011;17737;52.586;13.284;2023-09-07T00:31:42;0.20;;;0.20;;
31081;SDS011;17737;52.586;13.284;2023-09-07T00:34:11;0.30;;;0.30;;
31081;SDS011;17737;52.586;13.284;2023-09-07T00:36:39;0.20;;;0.20;;
31081;SDS011;17737;52.586;13.284;2023-09-07T00:39:08;0.20;;;0.20;;
31081;SDS011;17737;52.586;13.284;2023-09-07T00:41:36;0.30;;;0.30;;
31081;SDS011;17737;52.586;13.284;2023-09-07T00:44:04;0.30;;;0.30;;
31081;SDS011;17737;52.586;13.284;2023-09-07T00:46:32;0.25;;;0.25;;
31081;SDS011;17737;52.586;13.284;2023-09-07T00:49:00;0.30;;;0.30;;
31081;SDS011;17737;52.586;13.284;2023-09-07T00:51:32;0.30;;;0.30;;
31081;SDS011;17737;52.586;13.284;2023-09-07T00:54:01;0.30;;;0.30;;
31081;SDS011;17737;52.586;13.284;2023-09-07T00:56:29;0.20;;;0.20;;
31081;SDS011;17737;52.586;13.284;2023-09-07T00:58:57;0.20;;;0.20;;
31081;SDS011;17737;52.586;13.284;2023-09-07T01:01:26;0.20;;;0.20;;
31081;SDS011;17737;52.586;13.284;2023-09-07T01:03:54;0.30;;;0.30;;
31081;SDS011;17737;52.586;13.284;2023-09-07T01:06:25;0.20;;;0.20;;
31081;SDS011;17737;52.586;13.284;2023-09-07T01:09:03;0.30;;;0.30;;
31081;SDS011;17737;52.586;13.284;2023-09-07T01:11:39;0.30;;;0.30;;
31081;SDS011;17737;52.586;13.284;2023-09-07T01:14:07;0.20;;;0.20;;
31081;SDS011;17737;52.586;13.284;2023-09-07T01:16:36;0.30;;;0.30;;
31081;SDS011;17737;52.586;13.284;2023-09-07T01:19:06;0.30;;;0.30;;
31081;SDS011;17737;52.586;13.284;2023-09-07T01:21:38;0.40;;;0.40;;
31081;SDS011;17737;52.586;13.284;2023-09-07T01:24:07;0.20;;;0.20;;
31081;SDS011;17737;52.586;13.284;2023-09-07T01:26:37;0.30;;;0.30;;
31081;SDS011;17737;52.586;13.284;2023-09-07T01:29:06;0.30;;;0.30;;
31081;SDS011;17737;52.586;13.284;2023-09-07T01:31:35;0.30;;;0.30;;
31081;SDS011;17737;52.586;13.284;2023-09-07T01:34:04;0.20;;;0.20;;
31081;SDS011;17737;52.586;13.284;2023-09-07T01:36:32;0.20;;;0.20;;
31081;SDS011;17737;52.586;13.284;2023-09-07T01:39:02;0.30;;;0.30;;
31081;SDS011;17737;52.586;13.284;2023-09-07T01:41:32;0.25;;;0.25;;
31081;SDS011;17737;52.586;13.284;2023-09-07T01:44:00;0.30;;;0.30;;
31081;SDS011;17737;52.586;13.284;2023-09-07T01:46:28;0.30;;;0.30;;
31081;SDS011;17737;52.586;13.284;2023-09-07T01:48:57;0.20;;;0.20;;
31081;SDS011;17737;52.586;13.284;2023-09-07T01:51:25;0.20;;;0.20;;
31081;SDS011;17737;52.586;13.284;2023-09-07T01:53:54;0.30;;;0.30;;
31081;SDS011;17737;52.586;13.284;2023-09-07T01:56:23;0.30;;;0.30;;
31081;SDS011;17737;52.586;13.284;2023-09-07T01:58:52;0.43;;;0.43;;
31081;SDS011;17737;52.586;13.284;2023-09-07T02:01:23;0.20;;;0.20;;
31081;SDS011;17737;52.586;13.284;2023-09-07T02:03:52;0.30;;;0.30;;
31081;SDS011;17737;52.586;13.284;2023-09-07T02:06:20;0.30;;;0.30;;
31081;SDS011;17737;52.586;13.284;2023-09-07T02:08:49;0.30;;;0.30;;
31081;SDS011;17737;52.586;13.284;2023-09-07T02:11:17;0.30;;;0.30;;
31081;SDS011;17737;52.586;13.284;2023-09-07T02:13:47;0.20;;;0.20;;
31081;SDS011;17737;52.586;13.284;2023-09-07T02:16:15;0.20;;;0.20;;
31081;SDS011;17737;52.586;13.284;2023-09-07T02:18:44;0.30;;;0.30;;
31081;SDS011;17737;52.586;13.284;2023-09-07T02:21:13;0.20;;;0.20;;
31081;SDS011;17737;52.586;13.284;2023-09-07T02:23:41;0.20;;;0.20;;
31081;SDS011;17737;52.586;13.284;2023-09-07T02:26:09;0.38;;;0.38;;
31081;SDS011;17737;52.586;13.284;2023-09-07T02:28:37;0.20;;;0.20;;
31081;SDS011;17737;52.586;13.284;2023-09-07T02:31:07;0.30;;;0.30;;
31081;SDS011;17737;52.586;13.284;2023-09-07T02:33:35;0.30;;;0.30;;
31081;SDS011;17737;52.586;13.284;2023-09-07T02:36:03;0.30;;;0.30;;
31081;SDS011;17737;52.586;13.284;2023-09-07T02:38:31;0.30;;;0.30;;
31081;SDS011;17737;52.586;13.284;2023-09-07T02:41:00;0.20;;;0.20;;
31081;SDS011;17737;52.586;13.284;2023-09-07T02:43:28;0.20;;;0.20;;
31081;SDS011;17737;52.586;13.284;2023-09-07T02:45:57;0.20;;;0.20;;
31081;SDS011;17737;52.586;13.284;2023-09-07T02:48:26;0.28;;;0.28;;
31081;SDS011;17737;52.586;13.284;2023-09-07T02:50:55;0.30;;;0.30;;
31081;SDS011;17737;52.586;13.284;2023-09-07T02:53:25;0.20;;;0.20;;
31081;SDS011;17737;52.586;13.284;2023-09-07T02:55:53;0.20;;;0.20;;
31081;SDS011;17737;52.586;13.284;2023-09-07T02:58:21;0.30;;;0.30;;
31081;SDS011;17737;52.586;13.284;2023-09-07T03:00:50;0.30;;;0.30;;
31081;SDS011;17737;52.586;13.284;2023-09-07T03:03:17;0.30;;;0.30;;
31081;SDS011;17737;52.586;13.284;2023-09-07T03:05:46;0.30;;;0.30;;
31081;SDS011;17737;52.586;13.284;2023-09-07T03:08:15;0.30;;;0.30;;
31081;SDS011;17737;52.586;13.284;2023-09-07T03:10:43;0.28;;;0.28;;
31081;SDS011;17737;52.586;13.284;2023-09-07T03:13:11;0.30;;;0.30;;
31081;SDS011;17737;52.586;13.284;2023-09-07T03:15:39;0.30;;;0.30;;
31081;SDS011;17737;52.586;13.284;2023-09-07T03:18:07;0.30;;;0.30;;
31081;SDS011;17737;52.586;13.284;2023-09-07T03:20:35;0.20;;;0.20;;
31081;SDS011;17737;52.586;13.284;2023-09-07T03:23:04;0.30;;;0.30;;
31081;SDS011;17737;52.586;13.284;2023-09-07T03:25:32;0.22;;;0.22;;
31081;SDS011;17737;52.586;13.284;2023-09-07T03:28:00;0.30;;;0.30;;
31081;SDS011;17737;52.586;13.284;2023-09-07T03:30:30;0.30;;;0.30;;
31081;SDS011;17737;52.586;13.284;2023-09-07T03:32:58;0.30;;;0.30;;
31081;SDS011;17737;52.586;13.284;2023-09-07T03:35:26;0.30;;;0.30;;
31081;SDS011;17737;52.586;13.284;2023-09-07T03:37:54;0.30;;;0.30;;
31081;SDS011;17737;52.586;13.284;2023-09-07T03:40:24;0.20;;;0.20;;
31081;SDS011;17737;52.586;13.284;2023-09-07T03:42:52;0.30;;;0.30;;
31081;SDS011;17737;52.586;13.284;2023-09-07T03:45:20;0.20;;;0.20;;
31081;SDS011;17737;52.586;13.284;2023-09-07T03:47:48;0.20;;;0.20;;
31081;SDS011;17737;52.586;13.284;2023-09-07T03:50:17;0.20;;;0.20;;
31081;SDS011;17737;52.586;13.284;2023-09-07T03:52:45;0.20;;;0.20;;
31081;SDS011;17737;52.586;13.284;2023-09-07T03:55:13;0.20;;;0.20;;
31081;SDS011;17737;52.586;13.284;2023-09-07T03:57:43;0.30;;;0.30;;
31081;SDS011;17737;52.586;13.284;2023-09-07T04:00:11;0.30;;;0.30;;
31081;SDS011;17737;52.586;13.284;2023-09-07T04:02:42;0.30;;;0.30;;
31081;SDS011;17737;52.586;13.284;2023-09-07T04:05:10;0.20;;;0.20;;
31081;SDS011;17737;52.586;13.284;2023-09-07T04:07:38;0.20;;;0.20;;
31081;SDS011;17737;52.586;13.284;2023-09-07T04:10:06;0.30;;;0.30;;
31081;SDS011;17737;52.586;13.284;2023-09-07T04:12:35;0.30;;;0.30;;
31081;SDS011;17737;52.586;13.284;2023-09-07T04:15:05;0.30;;;0.30;;
31081;SDS011;17737;52.586;13.284;2023-09-07T04:17:34;0.30;;;0.30;;
31081;SDS011;17737;52.586;13.284;2023-09-07T04:20:07;0.22;;;0.22;;
31081;SDS011;17737;52.586;13.284;2023-09-07T04:22:38;0.20;;;0.20;;
31081;SDS011;17737;52.586;13.284;2023-09-07T04:25:07;0.22;;;0.22;;
31081;SDS011;17737;52.586;13.284;2023-09-07T04:27:35;0.30;;;0.30;;
31081;SDS011;17737;52.586;13.284;2023-09-07T04:30:06;0.20;;;0.20;;
31081;SDS011;17737;52.586;13.284;2023-09-07T04:32:35;0.20;;;0.20;;
31081;SDS011;17737;52.586;13.284;2023-09-07T04:35:04;0.20;;;0.20;;
31081;SDS011;17737;52.586;13.284;2023-09-07T04:37:33;0.20;;;0.20;;
31081;SDS011;17737;52.586;13.284;2023-09-07T04:40:01;0.30;;;0.30;;
31081;SDS011;17737;52.586;13.284;2023-09-07T04:42:31;0.30;;;0.30;;
31081;SDS011;17737;52.586;13.284;2023-09-07T04:44:58;0.25;;;0.25;;
31081;SDS011;17737;52.586;13.284;2023-09-07T04:47:28;0.35;;;0.35;;
31081;SDS011;17737;52.586;13.284;2023-09-07T04:49:56;0.30;;;0.30;;
31081;SDS011;17737;52.586;13.284;2023-09-07T04:52:24;0.30;;;0.30;;
31081;SDS011;17737;52.586;13.284;2023-09-07T04:54:53;0.20;;;0.20;;
31081;SDS011;17737;52.586;13.284;2023-09-07T04:57:20;0.20;;;0.20;;
31081;SDS011;17737;52.586;13.284;2023-09-07T04:59:48;0.28;;;0.28;;
31081;SDS011;17737;52.586;13.284;2023-09-07T05:02:16;0.30;;;0.30;;
31081;SDS011;17737;52.586;13.284;2023-09-07T05:04:46;0.30;;;0.30;;
31081;SDS011;17737;52.586;13.284;2023-09-07T05:07:14;0.30;;;0.30;;
31081;SDS011;17737;52.586;13.284;2023-09-07T05:09:42;0.30;;;0.30;;
31081;SDS011;17737;52.586;13.284;2023-09-07T05:12:10;0.30;;;0.30;;
31081;SDS011;17737;52.586;13.284;2023-09-07T05:14:38;0.20;;;0.20;;
31081;SDS011;17737;52.586;13.284;2023-09-07T05:17:06;0.25;;;0.25;;
31081;SDS011;17737;52.586;13.284;2023-09-07T05:19:34;0.20;;;0.20;;
31081;SDS011;17737;52.586;13.284;2023-09-07T05:22:03;0.20;;;0.20;;
31081;SDS011;17737;52.586;13.284;2023-09-07T05:24:31;0.30;;;0.30;;
31081;SDS011;17737;52.586;13.284;2023-09-07T05:26:59;0.30;;;0.30;;
31081;SDS011;17737;52.586;13.284;2023-09-07T05:31:57;0.20;;;0.20;;
31081;SDS011;17737;52.586;13.284;2023-09-07T05:34:28;0.20;;;0.20;;
31081;SDS011;17737;52.586;13.284;2023-09-07T05:36:57;0.20;;;0.20;;
31081;SDS011;17737;52.586;13.284;2023-09-07T05:39:26;0.30;;;0.30;;
31081;SDS011;17737;52.586;13.284;2023-09-07T05:41:54;0.20;;;0.20;;
31081;SDS011;17737;52.586;13.284;2023-09-07T05:44:22;0.20;;;0.20;;
31081;SDS011;17737;52.586;13.284;2023-09-07T05:46:50;0.20;;;0.20;;
31081;SDS011;17737;52.586;13.284;2023-09-07T05:49:18;0.32;;;0.32;;
31081;SDS011;17737;52.586;13.284;2023-09-07T05:51:46;0.30;;;0.30;;
31081;SDS011;17737;52.586;13.284;2023-09-07T05:54:14;0.20;;;0.20;;
31081;SDS011;17737;52.586;13.284;2023-09-07T05:56:44;0.30;;;0.30;;
31081;SDS011;17737;52.586;13.284;2023-09-07T05:59:12;0.40;;;0.40;;
31081;SDS011;17737;52.586;13.284;2023-09-07T06:01:40;0.20;;;0.20;;
31081;SDS011;17737;52.586;13.284;2023-09-07T06:04:08;0.20;;;0.20;;
31081;SDS011;17737;52.586;13.284;2023-09-07T06:06:37;0.25;;;0.25;;
31081;SDS011;17737;52.586;13.284;2023-09-07T06:09:05;0.30;;;0.30;;
31081;SDS011;17737;52.586;13.284;2023-09-07T06:11:33;0.30;;;0.30;;
31081;SDS011;17737;52.586;13.284;2023-09-07T06:14:02;0.30;;;0.30;;
31081;SDS011;17737;52.586;13.284;2023-09-07T06:16:30;0.30;;;0.30;;
31081;SDS011;17737;52.586;13.284;2023-09-07T06:18:58;0.22;;;0.22;;
31081;SDS011;17737;52.586;13.284;2023-09-07T06:21:26;0.28;;;0.28;;
31081;SDS011;17737;52.586;13.284;2023-09-07T06:23:54;0.20;;;0.20;;
31081;SDS011;17737;52.586;13.284;2023-09-07T06:26:23;0.30;;;0.30;;
31081;SDS011;17737;52.586;13.284;2023-09-07T06:28:51;0.30;;;0.30;;
31081;SDS011;17737;52.586;13.284;2023-09-07T06:31:21;0.22;;;0.22;;
31081;SDS011;17737;52.586;13.284;2023-09-07T06:33:49;0.25;;;0.25;;
31081;SDS011;17737;52.586;13.284;2023-09-07T06:36:17;0.20;;;0.20;;
31081;SDS011;17737;52.586;13.284;2023-09-07T06:39:03;0.10;;;0.10;;
31081;SDS011;17737;52.586;13.284;2023-09-07T06:41:32;0.20;;;0.20;;
31081;SDS011;17737;52.586;13.284;2023-09-07T06:44:00;0.20;;;0.20;;
31081;SDS011;17737;52.586;13.284;2023-09-07T06:46:30;0.20;;;0.20;;
31081;SDS011;17737;52.586;13.284;2023-09-07T06:48:58;0.20;;;0.20;;
31081;SDS011;17737;52.586;13.284;2023-09-07T06:51:26;0.20;;;0.20;;
31081;SDS011;17737;52.586;13.284;2023-09-07T06:53:54;0.20;;;0.20;;
31081;SDS011;17737;52.586;13.284;2023-09-07T06:56:23;0.20;;;0.20;;
31081;SDS011;17737;52.586;13.284;2023-09-07T06:58:52;0.25;;;0.25;;
31081;SDS011;17737;52.586;13.284;2023-09-07T07:01:20;0.20;;;0.20;;
31081;SDS011;17737;52.586;13.284;2023-09-07T07:03:50;0.15;;;0.15;;
31081;SDS011;17737;52.586;13.284;2023-09-07T07:06:19;0.30;;;0.30;;
31081;SDS011;17737;52.586;13.284;2023-09-07T07:08:47;0.20;;;0.20;;
31081;SDS011;17737;52.586;13.284;2023-09-07T07:11:15;0.20;;;0.20;;
31081;SDS011;17737;52.586;13.284;2023-09-07T07:13:43;0.10;;;0.10;;
31081;SDS011;17737;52.586;13.284;2023-09-07T07:16:11;0.20;;;0.20;;
31081;SDS011;17737;52.586;13.284;2023-09-07T07:18:40;0.20;;;0.20;;
31081;SDS011;17737;52.586;13.284;2023-09-07T07:23:39;0.20;;;0.20;;
31081;SDS011;17737;52.586;13.284;2023-09-07T07:26:07;0.20;;;0.20;;
31081;SDS011;17737;52.586;13.284;2023-09-07T07:28:35;0.20;;;0.20;;
31081;SDS011;17737;52.586;13.284;2023-09-07T07:31:07;0.20;;;0.20;;
31081;SDS011;17737;52.586;13.284;2023-09-07T07:33:35;0.20;;;0.20;;
31081;SDS011;17737;52.586;13.284;2023-09-07T07:36:04;0.20;;;0.20;;
31081;SDS011;17737;52.586;13.284;2023-09-07T07:38:34;0.20;;;0.20;;
31081;SDS011;17737;52.586;13.284;2023-09-07T07:41:03;0.20;;;0.20;;
31081;SDS011;17737;52.586;13.284;2023-09-07T07:43:32;0.20;;;0.20;;
31081;SDS011;17737;52.586;13.284;2023-09-07T07:46:01;0.10;;;0.10;;
31081;SDS011;17737;52.586;13.284;2023-09-07T07:48:29;0.10;;;0.10;;
31081;SDS011;17737;52.586;13.284;2023-09-07T07:50:57;0.10;;;0.10;;
31081;SDS011;17737;52.586;13.284;2023-09-07T07:53:30;0.20;;;0.20;;
31081;SDS011;17737;52.586;13.284;2023-09-07T07:56:00;0.20;;;0.20;;
31081;SDS011;17737;52.586;13.284;2023-09-07T07:58:29;0.10;;;0.10;;
31081;SDS011;17737;52.586;13.284;2023-09-07T08:00:57;0.10;;;0.10;;
31081;SDS011;17737;52.586;13.284;2023-09-07T08:03:25;0.10;;;0.10;;
31081;SDS011;17737;52.586;13.284;2023-09-07T08:05:53;0.20;;;0.20;;
31081;SDS011;17737;52.586;13.284;2023-09-07T08:08:22;0.10;;;0.10;;
31081;SDS011;17737;52.586;13.284;2023-09-07T08:10:50;0.10;;;0.10;;
31081;SDS011;17737;52.586;13.284;2023-09-07T08:13:19;0.10;;;0.10;;
31081;SDS011;17737;52.586;13.284;2023-09-07T08:15:47;0.15;;;0.15;;
31081;SDS011;17737;52.586;13.284;2023-09-07T08:18:15;0.10;;;0.10;;
31081;SDS011;17737;52.586;13.284;2023-09-07T08:20:44;0.10;;;0.10;;
31081;SDS011;17737;52.586;13.284;2023-09-07T08:23:12;0.10;;;0.10;;
31081;SDS011;17737;52.586;13.284;2023-09-07T08:25:40;0.20;;;0.20;;
31081;SDS011;17737;52.586;13.284;2023-09-07T08:28:12;0.10;;;0.10;;
31081;SDS011;17737;52.586;13.284;2023-09-07T08:30:43;0.10;;;0.10;;
31081;SDS011;17737;52.586;13.284;2023-09-07T08:33:11;0.10;;;0.10;;
31081;SDS011;17737;52.586;13.284;2023-09-07T08:35:39;0.20;;;0.20;;
31081;SDS011;17737;52.586;13.284;2023-09-07T08:38:10;0.10;;;0.10;;
31081;SDS011;17737;52.586;13.284;2023-09-07T08:40:39;0.20;;;0.20;;
31081;SDS011;17737;52.586;13.284;2023-09-07T08:43:08;0.20;;;0.20;;
31081;SDS011;17737;52.586;13.284;2023-09-07T08:45:40;0.20;;;0.20;;
31081;SDS011;17737;52.586;13.284;2023-09-07T08:48:18;0.20;;;0.20;;
31081;SDS011;17737;52.586;13.284;2023-09-07T08:50:47;0.10;;;0.10;;
31081;SDS011;17737;52.586;13.284;2023-09-07T08:53:18;0.20;;;0.20;;
31081;SDS011;17737;52.586;13.284;2023-09-07T08:55:47;0.20;;;0.20;;
31081;SDS011;17737;52.586;13.284;2023-09-07T08:58:15;0.20;;;0.20;;
31081;SDS011;17737;52.586;13.284;2023-09-07T09:00:43;0.10;;;0.10;;
31081;SDS011;17737;52.586;13.284;2023-09-07T09:03:13;0.10;;;0.10;;
31081;SDS011;17737;52.586;13.284;2023-09-07T09:05:41;0.20;;;0.20;;
31081;SDS011;17737;52.586;13.284;2023-09-07T09:08:14;0.10;;;0.10;;
31081;SDS011;17737;52.586;13.284;2023-09-07T09:10:46;0.10;;;0.10;;
31081;SDS011;17737;52.586;13.284;2023-09-07T09:13:15;0.10;;;0.10;;
31081;SDS011;17737;52.586;13.284;2023-09-07T09:15:43;0.10;;;0.10;;
31081;SDS011;17737;52.586;13.284;2023-09-07T09:18:11;0.10;;;0.10;;
31081;SDS011;17737;52.586;13.284;2023-09-07T09:20:43;0.10;;;0.10;;
31081;SDS011;17737;52.586;13.284;2023-09-07T09:23:11;0.10;;;0.10;;
31081;SDS011;17737;52.586;13.284;2023-09-07T09:25:41;0.17;;;0.17;;
31081;SDS011;17737;52.586;13.284;2023-09-07T09:28:09;0.10;;;0.10;;
31081;SDS011;17737;52.586;13.284;2023-09-07T09:30:37;0.10;;;0.10;;
31081;SDS011;17737;52.586;13.284;2023-09-07T09:33:06;0.10;;;0.10;;
31081;SDS011;17737;52.586;13.284;2023-09-07T09:35:36;0.13;;;0.13;;
31081;SDS011;17737;52.586;13.284;2023-09-07T09:38:05;0.10;;;0.10;;
31081;SDS011;17737;52.586;13.284;2023-09-07T09:40:33;0.10;;;0.10;;
31081;SDS011;17737;52.586;13.284;2023-09-07T09:43:02;0.10;;;0.10;;
31081;SDS011;17737;52.586;13.284;2023-09-07T09:45:30;0.10;;;0.10;;
31081;SDS011;17737;52.586;13.284;2023-09-07T09:48:01;0.10;;;0.10;;
31081;SDS011;17737;52.586;13.284;2023-09-07T09:50:33;0.10;;;0.10;;
31081;SDS011;17737;52.586;13.284;2023-09-07T09:53:06;0.10;;;0.10;;
31081;SDS011;17737;52.586;13.284;2023-09-07T09:55:35;0.10;;;0.10;;
31081;SDS011;17737;52.586;13.284;2023-09-07T09:58:03;0.10;;;0.10;;
31081;SDS011;17737;52.586;13.284;2023-09-07T10:00:31;0.10;;;0.10;;
31081;SDS011;17737;52.586;13.284;2023-09-07T10:03:05;0.10;;;0.10;;
31081;SDS011;17737;52.586;13.284;2023-09-07T10:05:40;0.10;;;0.10;;
31081;SDS011;17737;52.586;13.284;2023-09-07T10:08:14;0.20;;;0.20;;
31081;SDS011;17737;52.586;13.284;2023-09-07T10:10:46;0.10;;;0.10;;
31081;SDS011;17737;52.586;13.284;2023-09-07T10:13:15;0.10;;;0.10;;
31081;SDS011;17737;52.586;13.284;2023-09-07T10:15:59;0.10;;;0.10;;
31081;SDS011;17737;52.586;13.284;2023-09-07T10:18:34;0.10;;;0.10;;
31081;SDS011;17737;52.586;13.284;2023-09-07T10:21:03;0.10;;;0.10;;
31081;SDS011;17737;52.586;13.284;2023-09-07T10:23:37;0.10;;;0.10;;
31081;SDS011;17737;52.586;13.284;2023-09-07T10:26:10;0.10;;;0.10;;
31081;SDS011;17737;52.586;13.284;2023-09-07T10:28:40;0.10;;;0.10;;
31081;SDS011;17737;52.586;13.284;2023-09-07T10:33:42;0.10;;;0.10;;
31081;SDS011;17737;52.586;13.284;2023-09-07T10:36:20;0.10;;;0.10;;
31081;SDS011;17737;52.586;13.284;2023-09-07T10:38:55;0.10;;;0.10;;
31081;SDS011;17737;52.586;13.284;2023-09-07T10:41:24;0.10;;;0.10;;
31081;SDS011;17737;52.586;13.284;2023-09-07T10:43:52;0.10;;;0.10;;
31081;SDS011;17737;52.586;13.284;2023-09-07T10:46:23;0.10;;;0.10;;
31081;SDS011;17737;52.586;13.284;2023-09-07T10:48:52;0.10;;;0.10;;
31081;SDS011;17737;52.586;13.284;2023-09-07T10:51:22;0.20;;;0.20;;
31081;SDS011;17737;52.586;13.284;2023-09-07T10:53:50;0.10;;;0.10;;
31081;SDS011;17737;52.586;13.284;2023-09-07T10:56:25;0.10;;;0.10;;
31081;SDS011;17737;52.586;13.284;2023-09-07T10:58:54;0.10;;;0.10;;
31081;SDS011;17737;52.586;13.284;2023-09-07T11:01:22;0.10;;;0.10;;
31081;SDS011;17737;52.586;13.284;2023-09-07T11:03:50;0.10;;;0.10;;
31081;SDS011;17737;52.586;13.284;2023-09-07T11:06:19;0.10;;;0.10;;
31081;SDS011;17737;52.586;13.284;2023-09-07T11:08:52;0.10;;;0.10;;
31081;SDS011;17737;52.586;13.284;2023-09-07T11:11:20;0.10;;;0.10;;
31081;SDS011;17737;52.586;13.284;2023-09-07T11:13:51;0.10;;;0.10;;
31081;SDS011;17737;52.586;13.284;2023-09-07T11:16:19;0.10;;;0.10;;
31081;SDS011;17737;52.586;13.284;2023-09-07T11:18:47;0.10;;;0.10;;
31081;SDS011;17737;52.586;13.284;2023-09-07T11:21:20;0.10;;;0.10;;
31081;SDS011;17737;52.586;13.284;2023-09-07T11:23:48;0.10;;;0.10;;
31081;SDS011;17737;52.586;13.284;2023-09-07T11:26:19;0.10;;;0.10;;
31081;SDS011;17737;52.586;13.284;2023-09-07T11:28:50;0.10;;;0.10;;
31081;SDS011;17737;52.586;13.284;2023-09-07T11:31:18;0.20;;;0.20;;
31081;SDS011;17737;52.586;13.284;2023-09-07T11:33:48;0.10;;;0.10;;
31081;SDS011;17737;52.586;13.284;2023-09-07T11:36:16;0.10;;;0.10;;
31081;SDS011;17737;52.586;13.284;2023-09-07T11:38:44;0.10;;;0.10;;
31081;SDS011;17737;52.586;13.284;2023-09-07T11:41:12;0.10;;;0.10;;
31081;SDS011;17737;52.586;13.284;2023-09-07T11:43:40;0.10;;;0.10;;
31081;SDS011;17737;52.586;13.284;2023-09-07T11:46:09;0.10;;;0.10;;
31081;SDS011;17737;52.586;13.284;2023-09-07T11:48:38;0.10;;;0.10;;
31081;SDS011;17737;52.586;13.284;2023-09-07T11:51:06;0.10;;;0.10;;
31081;SDS011;17737;52.586;13.284;2023-09-07T11:53:35;0.10;;;0.10;;
31081;SDS011;17737;52.586;13.284;2023-09-07T11:56:03;0.10;;;0.10;;
31081;SDS011;17737;52.586;13.284;2023-09-07T11:58:31;0.10;;;0.10;;
31081;SDS011;17737;52.586;13.284;2023-09-07T12:00:59;0.10;;;0.10;;
31081;SDS011;17737;52.586;13.284;2023-09-07T12:03:29;0.10;;;0.10;;
31081;SDS011;17737;52.586;13.284;2023-09-07T12:06:00;0.10;;;0.10;;
31081;SDS011;17737;52.586;13.284;2023-09-07T12:08:29;0.10;;;0.10;;
31081;SDS011;17737;52.586;13.284;2023-09-07T12:10:57;0.10;;;0.10;;
31081;SDS011;17737;52.586;13.284;2023-09-07T12:13:25;0.10;;;0.10;;
31081;SDS011;17737;52.586;13.284;2023-09-07T12:15:53;0.10;;;0.10;;
31081;SDS011;17737;52.586;13.284;2023-09-07T12:18:21;0.10;;;0.10;;
31081;SDS011;17737;52.586;13.284;2023-09-07T12:20:51;0.10;;;0.10;;
31081;SDS011;17737;52.586;13.284;2023-09-07T12:23:20;0.10;;;0.10;;
31081;SDS011;17737;52.586;13.284;2023-09-07T12:28:17;0.10;;;0.10;;
31081;SDS011;17737;52.586;13.284;2023-09-07T12:30:46;0.10;;;0.10;;
31081;SDS011;17737;52.586;13.284;2023-09-07T12:33:15;0.10;;;0.10;;
31081;SDS011;17737;52.586;13.284;2023-09-07T12:35:43;0.08;;;0.08;;
31081;SDS011;17737;52.586;13.284;2023-09-07T12:38:13;0.10;;;0.10;;
31081;SDS011;17737;52.586;13.284;2023-09-07T12:40:44;0.10;;;0.10;;
31081;SDS011;17737;52.586;13.284;2023-09-07T12:43:12;0.10;;;0.10;;
31081;SDS011;17737;52.586;13.284;2023-09-07T12:45:40;0.10;;;0.10;;
31081;SDS011;17737;52.586;13.284;2023-09-07T12:48:09;0.10;;;0.10;;
31081;SDS011;17737;52.586;13.284;2023-09-07T12:50:37;0.10;;;0.10;;
31081;SDS011;17737;52.586;13.284;2023-09-07T12:53:06;0.13;;;0.13;;
31081;SDS011;17737;52.586;13.284;2023-09-07T12:55:36;0.63;;;0.20;;
31081;SDS011;17737;52.586;13.284;2023-09-07T12:58:04;0.10;;;0.10;;
31081;SDS011;17737;52.586;13.284;2023-09-07T13:00:32;0.10;;;0.10;;
31081;SDS011;17737;52.586;13.284;2023-09-07T13:03:00;0.10;;;0.10;;
31081;SDS011;17737;52.586;13.284;2023-09-07T13:05:29;0.10;;;0.10;;
31081;SDS011;17737;52.586;13.284;2023-09-07T13:07:57;0.10;;;0.10;;
31081;SDS011;17737;52.586;13.284;2023-09-07T13:10:26;0.10;;;0.10;;
31081;SDS011;17737;52.586;13.284;2023-09-07T13:12:55;0.10;;;0.10;;
31081;SDS011;17737;52.586;13.284;2023-09-07T13:15:23;0.10;;;0.10;;
31081;SDS011;17737;52.586;13.284;2023-09-07T13:17:51;0.10;;;0.10;;
31081;SDS011;17737;52.586;13.284;2023-09-07T13:20:19;0.10;;;0.10;;
31081;SDS011;17737;52.586;13.284;2023-09-07T13:22:48;0.10;;;0.10;;
31081;SDS011;17737;52.586;13.284;2023-09-07T13:25:16;0.10;;;0.10;;
31081;SDS011;17737;52.586;13.284;2023-09-07T13:27:47;0.03;;;0.03;;
31081;SDS011;17737;52.586;13.284;2023-09-07T13:30:17;0.10;;;0.10;;
31081;SDS011;17737;52.586;13.284;2023-09-07T13:32:45;0.20;;;0.20;;
31081;SDS011;17737;52.586;13.284;2023-09-07T13:35:14;0.10;;;0.10;;
31081;SDS011;17737;52.586;13.284;2023-09-07T13:37:42;0.10;;;0.10;;
31081;SDS011;17737;52.586;13.284;2023-09-07T13:40:10;0.10;;;0.10;;
31081;SDS011;17737;52.586;13.284;2023-09-07T13:42:41;0.10;;;0.10;;
31081;SDS011;17737;52.586;13.284;2023-09-07T13:45:09;0.10;;;0.10;;
31081;SDS011;17737;52.586;13.284;2023-09-07T13:47:39;0.10;;;0.10;;
31081;SDS011;17737;52.586;13.284;2023-09-07T13:50:07;0.10;;;0.10;;
31081;SDS011;17737;52.586;13.284;2023-09-07T13:52:35;0.10;;;0.10;;
31081;SDS011;17737;52.586;13.284;2023-09-07T13:55:03;0.00;;;0.00;;
31081;SDS011;17737;52.586;13.284;2023-09-07T13:57:32;0.10;;;0.10;;
31081;SDS011;17737;52.586;13.284;2023-09-07T14:00:00;0.10;;;0.10;;
31081;SDS011;17737;52.586;13.284;2023-09-07T14:02:29;0.10;;;0.10;;
31081;SDS011;17737;52.586;13.284;2023-09-07T14:05:00;0.10;;;0.10;;
31081;SDS011;17737;52.586;13.284;2023-09-07T14:07:29;0.10;;;0.10;;
31081;SDS011;17737;52.586;13.284;2023-09-07T14:09:57;0.10;;;0.10;;
31081;SDS011;17737;52.586;13.284;2023-09-07T14:12:24;0.10;;;0.10;;
31081;SDS011;17737;52.586;13.284;2023-09-07T14:14:53;0.10;;;0.10;;
31081;SDS011;17737;52.586;13.284;2023-09-07T14:17:21;0.10;;;0.10;;
31081;SDS011;17737;52.586;13.284;2023-09-07T14:19:49;0.10;;;0.10;;
31081;SDS011;17737;52.586;13.284;2023-09-07T14:22:18;0.10;;;0.10;;
31081;SDS011;17737;52.586;13.284;2023-09-07T14:24:46;0.10;;;0.10;;
31081;SDS011;17737;52.586;13.284;2023-09-07T14:27:14;0.10;;;0.10;;
31081;SDS011;17737;52.586;13.284;2023-09-07T14:29:42;0.10;;;0.10;;
31081;SDS011;17737;52.586;13.284;2023-09-07T14:32:10;0.10;;;0.10;;
31081;SDS011;17737;52.586;13.284;2023-09-07T14:34:38;0.10;;;0.10;;
31081;SDS011;17737;52.586;13.284;2023-09-07T14:37:06;0.05;;;0.05;;
31081;SDS011;17737;52.586;13.284;2023-09-07T14:39:36;0.10;;;0.10;;
31081;SDS011;17737;52.586;13.284;2023-09-07T14:42:13;0.10;;;0.10;;
31081;SDS011;17737;52.586;13.284;2023-09-07T14:44:44;0.10;;;0.10;;
31081;SDS011;17737;52.586;13.284;2023-09-07T14:47:13;0.10;;;0.10;;
31081;SDS011;17737;52.586;13.284;2023-09-07T14:49:41;0.10;;;0.10;;
31081;SDS011;17737;52.586;13.284;2023-09-07T14:52:09;0.10;;;0.10;;
31081;SDS011;17737;52.586;13.284;2023-09-07T14:54:41;0.10;;;0.10;;